Terminal Aerodrome Forecast
Issued by NWS

Home | Current Version | Previous Version | Text Only | Print | Product List | Glossary On
Versions: 1 2 3 4 5 6 7 8 9 10 11 12
000
FTUS46 KSEW 221733
TAFHQM
TAF
KHQM 221733Z 2218/2318 07015G25KT 5SM -RA BR OVC035
     FM222100 13014G24KT P6SM VCSH BKN040 OVC060
     FM230000 12012KT P6SM BKN050 OVC080
     FM230600 08010KT P6SM SCT040=

USA.gov is the U.S. government's official web portal to all federal, state and local government web resources and services.